createdAt,value
2017-07-01T00:00:47.560Z,70.4
2017-07-01T00:01:47.556Z,70.4
2017-07-01T00:02:47.561Z,70.4
2017-07-01T00:03:47.548Z,70.5
2017-07-01T00:04:47.543Z,70.4
2017-07-01T00:05:47.529Z,70.5
2017-07-01T00:06:47.533Z,70.21
2017-07-01T00:07:47.526Z,70.3
2017-07-01T00:08:47.533Z,70.97
2017-07-01T00:09:47.515Z,70.87
2017-07-01T00:10:47.521Z,70.78
2017-07-01T00:11:47.509Z,70.68
2017-07-01T00:12:47.510Z,70.87
2017-07-01T00:13:47.490Z,71.07
2017-07-01T00:14:47.496Z,70.97
2017-07-01T00:15:47.481Z,70.97
2017-07-01T00:16:47.473Z,71.36
2017-07-01T00:17:47.483Z,71.07
2017-07-01T00:18:47.476Z,71.39
2017-07-01T00:19:47.465Z,71.01
2017-07-01T00:20:47.472Z,71.07
2017-07-01T00:21:47.452Z,71.77
2017-07-01T00:22:47.455Z,71.77
2017-07-01T00:23:47.442Z,71.11
2017-07-01T00:24:47.449Z,71.3
2017-07-01T00:25:47.435Z,71.3
2017-07-01T00:26:47.445Z,71.39
2017-07-01T00:27:47.431Z,71.01
2017-07-01T00:28:47.435Z,71.01
2017-07-01T00:29:47.424Z,70.81
2017-07-01T00:30:47.415Z,70.62
2017-07-01T00:31:47.414Z,70.43
2017-07-01T00:32:47.414Z,70.91
2017-07-01T00:33:47.407Z,70.62
2017-07-01T00:34:47.397Z,71.01
2017-07-01T00:35:47.400Z,71.01
2017-07-01T00:36:47.382Z,70.59
2017-07-01T00:37:47.391Z,70.24
2017-07-01T00:38:47.382Z,70.34
2017-07-01T00:39:47.070Z,70.4
2017-07-01T00:40:47.372Z,70.3
2017-07-01T00:41:47.362Z,70.3
2017-07-01T00:42:47.365Z,70.34
2017-07-01T00:43:47.369Z,70.59
2017-07-01T00:44:47.357Z,70.3
2017-07-01T00:45:47.342Z,70.3
2017-07-01T00:46:47.334Z,70.3
2017-07-01T00:47:47.343Z,70.4
2017-07-01T00:48:47.343Z,70.3
2017-07-01T00:49:47.027Z,70.11
2017-07-01T00:50:47.316Z,70.3
2017-07-01T00:51:47.325Z,70.4
2017-07-01T00:52:47.323Z,70.3
2017-07-01T00:53:47.309Z,70.11
2017-07-01T00:54:47.309Z,70.11
2017-07-01T00:55:47.290Z,70.11
2017-07-01T00:56:47.303Z,70.11
2017-07-01T00:57:47.281Z,70.11
2017-07-01T00:58:47.285Z,70.21
2017-07-01T00:59:47.284Z,70.3
2017-07-01T01:00:47.280Z,70.4
2017-07-01T01:01:47.266Z,70.97
2017-07-01T01:02:47.265Z,71.26
2017-07-01T01:03:47.267Z,70.5
2017-07-01T01:04:47.263Z,70.68
2017-07-01T01:05:47.251Z,71.07
2017-07-01T01:06:47.252Z,70.97
2017-07-01T01:07:47.242Z,70.68
2017-07-01T01:08:47.240Z,70.5
2017-07-01T01:09:47.235Z,70.87
2017-07-01T01:10:47.229Z,70.97
2017-07-01T01:11:47.222Z,70.87
2017-07-01T01:12:47.221Z,70.59
2017-07-01T01:13:47.215Z,70.87
2017-07-01T01:14:47.209Z,70.78
2017-07-01T01:15:47.204Z,70.59
2017-07-01T01:16:47.198Z,70.59
2017-07-01T01:17:47.184Z,70.68
2017-07-01T01:18:47.182Z,70.68
2017-07-01T01:19:47.190Z,70.78
2017-07-01T01:20:47.209Z,70.68
2017-07-01T01:21:47.178Z,70.87
2017-07-01T01:22:47.168Z,70.78
2017-07-01T01:23:47.169Z,70.78
2017-07-01T01:24:47.161Z,70.4
2017-07-01T01:25:47.164Z,70.4
2017-07-01T01:26:47.145Z,70.68
2017-07-01T01:27:46.841Z,70.78
2017-07-01T01:28:47.139Z,70.4
2017-07-01T01:29:47.139Z,70.68
2017-07-01T01:30:47.119Z,70.68
2017-07-01T01:31:46.818Z,71.16
2017-07-01T01:32:47.121Z,71.16
2017-07-01T01:33:47.118Z,71.16
2017-07-01T01:34:47.102Z,70.78
2017-07-01T01:35:47.112Z,71.16
2017-07-01T01:36:47.107Z,70.97
2017-07-01T01:37:47.105Z,71.07
2017-07-01T01:38:47.092Z,70.87
2017-07-01T01:39:47.086Z,70.97
2017-07-01T01:40:47.070Z,71.36
2017-07-01T01:41:47.085Z,71.73
2017-07-01T01:42:46.754Z,71.36
2017-07-01T01:43:47.070Z,71.36
2017-07-01T01:44:47.053Z,71.73
2017-07-01T01:45:47.058Z,71.07
2017-07-01T01:46:47.041Z,71.07
2017-07-01T01:47:47.039Z,71.07
2017-07-01T01:48:47.041Z,71.07
2017-07-01T01:49:47.037Z,70.97
2017-07-01T01:50:47.033Z,71.26
2017-07-01T01:51:47.032Z,71.07
2017-07-01T01:52:47.020Z,71.55
2017-07-01T01:53:47.010Z,71.45
2017-07-01T01:54:47.013Z,71.26
2017-07-01T01:55:47.004Z,71.55
2017-07-01T01:56:46.995Z,71.64
2017-07-01T01:57:46.995Z,71.55
2017-07-01T01:58:46.995Z,71.73
2017-07-01T01:59:46.999Z,71.55
2017-07-01T02:00:46.982Z,71.64
2017-07-01T02:01:46.989Z,71.55
2017-07-01T02:02:46.972Z,71.73
2017-07-01T02:03:46.972Z,71.55
2017-07-01T02:04:46.954Z,71.55
2017-07-01T02:05:46.961Z,71.11
2017-07-01T02:06:46.968Z,71.68
2017-07-01T02:07:46.942Z,71.58
2017-07-01T02:08:46.953Z,71.2
2017-07-01T02:09:46.932Z,71.48
2017-07-01T02:10:46.938Z,71.11
2017-07-01T02:11:46.625Z,71.11
2017-07-01T02:12:46.624Z,71.58
2017-07-01T02:13:46.917Z,71.2
2017-07-01T02:14:46.918Z,71.48
2017-07-01T02:15:46.911Z,71.48
2017-07-01T02:16:46.914Z,71.48
2017-07-01T02:17:46.903Z,71.58
2017-07-01T02:18:46.897Z,71.58
2017-07-01T02:19:46.893Z,71.58
2017-07-01T02:20:46.891Z,71.48
2017-07-01T02:21:46.874Z,71.68
2017-07-01T02:22:46.888Z,71.48
2017-07-01T02:23:46.562Z,71.58
2017-07-01T02:24:46.870Z,71.48
2017-07-01T02:25:46.863Z,71.58
2017-07-01T02:26:46.866Z,71.3
2017-07-01T02:27:46.859Z,71.39
2017-07-01T02:28:46.856Z,71.2
2017-07-01T02:29:47.149Z,71.39
2017-07-01T02:30:46.842Z,71.81
2017-07-01T02:31:46.838Z,71.01
2017-07-01T02:32:46.838Z,71.11
2017-07-01T02:33:46.820Z,71.01
2017-07-01T02:34:46.830Z,71.04
2017-07-01T02:35:46.825Z,70.43
2017-07-01T02:36:46.508Z,70.62
2017-07-01T02:37:46.808Z,70.53
2017-07-01T02:38:46.809Z,70.72
2017-07-01T02:39:46.494Z,70.66
2017-07-01T02:40:46.483Z,70.62
2017-07-01T02:41:46.785Z,70.81
2017-07-01T02:42:46.793Z,70.43
2017-07-01T02:43:46.782Z,70.81
2017-07-01T02:44:46.784Z,70.43
2017-07-01T02:45:46.804Z,70.81
2017-07-01T02:46:46.771Z,70.37
2017-07-01T02:47:46.767Z,70.43
2017-07-01T02:48:46.758Z,70.76
2017-07-01T02:49:46.764Z,70.76
2017-07-01T02:50:46.444Z,70.76
2017-07-01T02:51:46.741Z,70.76
2017-07-01T02:52:46.737Z,70.76
2017-07-01T02:53:46.741Z,70.66
2017-07-01T02:54:46.742Z,70.37
2017-07-01T02:55:46.727Z,70.47
2017-07-01T02:56:46.712Z,70.56
2017-07-01T02:57:46.722Z,70.47
2017-07-01T02:58:46.718Z,70.47
2017-07-01T02:59:46.712Z,70.95
2017-07-01T03:00:46.745Z,70.85
2017-07-01T03:01:46.691Z,70.76
2017-07-01T03:02:46.727Z,70.85
2017-07-01T03:03:46.689Z,70.85
2017-07-01T03:04:46.696Z,70.56
2017-07-01T03:05:46.680Z,70.76
2017-07-01T03:06:46.687Z,70.95
2017-07-01T03:07:46.678Z,71.04
2017-07-01T03:08:46.673Z,71.04
2017-07-01T03:09:46.666Z,71.14
2017-07-01T03:10:46.651Z,70.85
2017-07-01T03:11:46.658Z,70.66
2017-07-01T03:12:46.661Z,70.47
2017-07-01T03:13:46.643Z,70.95
2017-07-01T03:14:46.339Z,70.66
2017-07-01T03:15:46.638Z,71.14
2017-07-01T03:16:46.641Z,70.66
2017-07-01T03:17:46.624Z,70.76
2017-07-01T03:18:46.627Z,71.14
2017-07-01T03:19:46.620Z,71.04
2017-07-01T03:20:46.616Z,71.04
2017-07-01T03:21:46.607Z,71.04
2017-07-01T03:22:46.621Z,70.66
2017-07-01T03:23:46.607Z,70.28
2017-07-01T03:24:46.596Z,70.95
2017-07-01T03:25:46.583Z,70.47
2017-07-01T03:26:46.579Z,70.66
2017-07-01T03:27:46.585Z,70.66
2017-07-01T03:28:46.588Z,70.37
2017-07-01T03:29:46.584Z,70.47
2017-07-01T03:30:46.568Z,70.18
2017-07-01T03:31:46.565Z,70.37
2017-07-01T03:32:46.557Z,70.56
2017-07-01T03:33:46.564Z,70.56
2017-07-01T03:34:46.551Z,70.37
2017-07-01T03:35:46.549Z,70.47
2017-07-01T03:36:46.535Z,70.47
2017-07-01T03:37:46.550Z,70.37
2017-07-01T03:38:46.531Z,70.47
2017-07-01T03:39:46.547Z,70.47
2017-07-01T03:40:46.530Z,70.37
2017-07-01T03:41:46.520Z,70.37
2017-07-01T03:42:46.207Z,70.41
2017-07-01T03:43:46.520Z,70.47
2017-07-01T03:44:46.520Z,70.37
2017-07-01T03:45:46.513Z,70.47
2017-07-01T03:46:46.488Z,70.5
2017-07-01T03:47:46.493Z,70.5
2017-07-01T03:48:46.491Z,70.5
2017-07-01T03:49:46.486Z,70.5
2017-07-01T03:50:46.485Z,70.12
2017-07-01T03:51:46.486Z,70.12
2017-07-01T03:52:46.467Z,70.5
2017-07-01T03:53:46.475Z,70.31
2017-07-01T03:54:46.459Z,70.41
2017-07-01T03:55:46.454Z,70.5
2017-07-01T03:56:46.451Z,70.41
2017-07-01T03:57:46.464Z,70.41
2017-07-01T03:58:46.449Z,70.41
2017-07-01T03:59:46.439Z,70.41
2017-07-01T04:00:46.433Z,70.44
2017-07-01T04:01:46.433Z,70.21
2017-07-01T04:02:46.437Z,70.41
2017-07-01T04:03:46.422Z,70.03
2017-07-01T04:04:46.415Z,70.03
2017-07-01T04:05:46.429Z,70.06
2017-07-01T04:06:46.409Z,70.06
2017-07-01T04:07:46.417Z,70.06
2017-07-01T04:08:46.395Z,70.54
2017-07-01T04:09:46.405Z,70.44
2017-07-01T04:10:46.392Z,70.54
2017-07-01T04:11:46.398Z,70.54
2017-07-01T04:12:46.391Z,70.06
2017-07-01T04:13:46.393Z,69.96
2017-07-01T04:14:46.386Z,69.68
2017-07-01T04:15:46.385Z,69.58
2017-07-01T04:16:46.367Z,69.68
2017-07-01T04:17:46.381Z,69.39
2017-07-01T04:18:46.357Z,69.58
2017-07-01T04:19:46.371Z,69.39
2017-07-01T04:20:46.353Z,69.68
2017-07-01T04:21:46.356Z,69.58
2017-07-01T04:22:46.351Z,69.29
2017-07-01T04:23:46.362Z,69.96
2017-07-01T04:24:46.348Z,69.58
2017-07-01T04:25:46.354Z,69.68
2017-07-01T04:26:46.338Z,69.68
2017-07-01T04:27:46.327Z,69.87
2017-07-01T04:28:46.326Z,69.39
2017-07-01T04:29:46.332Z,69.33
2017-07-01T04:30:46.323Z,69.42
2017-07-01T04:31:46.325Z,69.29
2017-07-01T04:32:46.315Z,69.33
2017-07-01T04:33:46.322Z,69.13
2017-07-01T04:34:46.312Z,69.23
2017-07-01T04:35:46.308Z,69.33
2017-07-01T04:36:46.297Z,69.13
2017-07-01T04:37:46.294Z,69.62
2017-07-01T04:38:46.287Z,69.42
2017-07-01T04:39:46.295Z,69.81
2017-07-01T04:40:46.273Z,69.71
2017-07-01T04:41:46.284Z,69.62
2017-07-01T04:42:46.279Z,69.9
2017-07-01T04:43:46.318Z,69.33
2017-07-01T04:44:46.274Z,69.13
2017-07-01T04:45:46.272Z,69.07
2017-07-01T04:46:46.266Z,69.36
2017-07-01T04:47:46.254Z,69.26
2017-07-01T04:48:46.248Z,69.26
2017-07-01T04:49:46.254Z,69.36
2017-07-01T04:50:46.256Z,69.26
2017-07-01T04:51:46.248Z,69.36
2017-07-01T04:52:46.246Z,69.11
2017-07-01T04:53:46.240Z,69.2
2017-07-01T04:54:46.237Z,69.3
2017-07-01T04:55:46.234Z,69.2
2017-07-01T04:56:46.231Z,69.2
2017-07-01T04:57:46.235Z,69.43
2017-07-01T04:58:46.229Z,68.95
2017-07-01T04:59:46.214Z,69.05
2017-07-01T05:00:46.224Z,68.47
2017-07-01T05:01:46.227Z,68.66
2017-07-01T05:02:46.221Z,68.37
2017-07-01T05:03:46.208Z,68.37
2017-07-01T05:04:46.212Z,68.41
2017-07-01T05:05:46.206Z,68.37
2017-07-01T05:06:46.216Z,68.51
2017-07-01T05:07:46.204Z,68.6
2017-07-01T05:08:46.205Z,68.02
2017-07-01T05:09:46.193Z,68.12
2017-07-01T05:10:46.204Z,68.12
2017-07-01T05:11:46.182Z,68.12
2017-07-01T05:12:46.192Z,67.58
2017-07-01T05:13:46.189Z,67.77
2017-07-01T05:14:46.192Z,67.19
2017-07-01T05:15:46.189Z,67.38
2017-07-01T05:16:46.183Z,67.29
2017-07-01T05:17:46.167Z,68.48
2017-07-01T05:18:46.167Z,68.19
2017-07-01T05:19:46.180Z,69.18
2017-07-01T05:20:46.186Z,69.99
2017-07-01T05:21:46.176Z,70.02
2017-07-01T05:22:46.174Z,71.02
2017-07-01T05:23:46.167Z,71.64
2017-07-01T05:24:46.178Z,69.64
2017-07-01T05:25:46.168Z,68.04
2017-07-01T05:26:46.175Z,67.36
2017-07-01T05:27:46.174Z,66.33
2017-07-01T05:28:46.177Z,65.66
2017-07-01T05:29:46.180Z,66.14
2017-07-01T05:30:46.183Z,65.47
2017-07-01T05:31:46.184Z,65.5
2017-07-01T05:32:46.182Z,64.34
2017-07-01T05:33:46.178Z,64.53
2017-07-01T05:34:46.181Z,64.43
2017-07-01T05:35:46.191Z,64.53
2017-07-01T05:36:46.196Z,65.01
2017-07-01T05:37:46.196Z,63.28
2017-07-01T05:38:45.877Z,63.37
2017-07-01T05:39:46.191Z,63.37
2017-07-01T05:40:46.189Z,63.5
2017-07-01T05:41:46.210Z,63.5
2017-07-01T05:42:46.201Z,63.4
2017-07-01T05:43:46.213Z,63.63
2017-07-01T05:44:46.207Z,63.14
2017-07-01T05:45:46.209Z,63.34
2017-07-01T05:46:46.233Z,63.56
2017-07-01T05:47:46.213Z,62.88
2017-07-01T05:48:46.220Z,62.79
2017-07-01T05:49:46.219Z,64.07
2017-07-01T05:50:46.219Z,63.69
2017-07-01T05:51:46.223Z,62.92
2017-07-01T05:52:46.235Z,62.92
2017-07-01T05:53:46.238Z,63.11
2017-07-01T05:54:46.228Z,62.92
2017-07-01T05:55:46.253Z,63.92
2017-07-01T05:56:46.242Z,63.01
2017-07-01T05:57:46.256Z,62.82
2017-07-01T05:58:46.253Z,63.43
2017-07-01T05:59:46.262Z,63.92
2017-07-01T06:00:46.258Z,63.31
2017-07-01T06:01:46.265Z,66.3
2017-07-01T06:02:46.266Z,65.14
2017-07-01T06:03:46.271Z,63.69
2017-07-01T06:04:46.263Z,63.79
2017-07-01T06:05:46.279Z,64.04
2017-07-01T06:06:46.288Z,63.46
2017-07-01T06:07:45.975Z,63.56
2017-07-01T06:08:46.287Z,64.53
2017-07-01T06:09:46.281Z,65.11
2017-07-01T06:10:46.297Z,64.14
2017-07-01T06:11:46.290Z,64.72
2017-07-01T06:12:46.293Z,63.43
2017-07-01T06:13:46.313Z,64.04
2017-07-01T06:14:46.302Z,63.53
2017-07-01T06:15:46.311Z,64.5
2017-07-01T06:16:46.303Z,63.73
2017-07-01T06:17:46.319Z,63.73
2017-07-01T06:18:46.304Z,64.11
2017-07-01T06:19:46.308Z,64.89
2017-07-01T06:20:46.306Z,64.5
2017-07-01T06:21:46.321Z,63.79
2017-07-01T06:22:46.324Z,63.89
2017-07-01T06:23:46.318Z,63.89
2017-07-01T06:24:46.351Z,64.66
2017-07-01T06:25:46.021Z,64.08
2017-07-01T06:26:46.342Z,64.08
2017-07-01T06:27:46.325Z,64.08
2017-07-01T06:28:46.331Z,64.27
2017-07-01T06:29:46.327Z,63.24
2017-07-01T06:30:46.342Z,63.14
2017-07-01T06:31:46.336Z,63.24
2017-07-01T06:32:46.342Z,62.56
2017-07-01T06:33:46.332Z,62.69
2017-07-01T06:34:46.600Z,65.01
2017-07-01T06:35:46.343Z,66.95
2017-07-01T06:36:46.352Z,65.4
2017-07-01T06:37:46.350Z,66.27
2017-07-01T06:38:46.360Z,64.72
2017-07-01T06:39:46.349Z,66.75
2017-07-01T06:40:46.349Z,64.82
2017-07-01T06:41:46.358Z,65.3
2017-07-01T06:42:46.363Z,64.92
2017-07-01T06:43:46.368Z,66.17
2017-07-01T06:44:46.368Z,65.5
2017-07-01T06:45:46.360Z,65.11
2017-07-01T06:46:46.382Z,65.4
2017-07-01T06:47:46.382Z,65.11
2017-07-01T06:48:46.385Z,64.82
2017-07-01T06:49:46.387Z,65.2
2017-07-01T06:50:46.387Z,65.3
2017-07-01T06:51:46.391Z,66.37
2017-07-01T06:52:46.392Z,65.88
2017-07-01T06:53:46.391Z,67.72
2017-07-01T06:54:46.390Z,70.14
2017-07-01T06:55:46.400Z,69.85
2017-07-01T06:56:46.397Z,68.75
2017-07-01T06:57:46.407Z,68.27
2017-07-01T06:58:46.390Z,69.62
2017-07-01T06:59:46.410Z,67.4
2017-07-01T07:00:46.397Z,66.59
2017-07-01T07:01:46.419Z,67.08
2017-07-01T07:02:46.099Z,66.3
2017-07-01T07:03:46.413Z,65.43
2017-07-01T07:04:46.424Z,64.98
2017-07-01T07:05:46.415Z,65.47
2017-07-01T07:06:46.420Z,66.33
2017-07-01T07:07:46.417Z,66.05
2017-07-01T07:08:46.424Z,66.33
2017-07-01T07:09:46.427Z,65.37
2017-07-01T07:10:46.424Z,65.5
2017-07-01T07:11:46.432Z,64.72
2017-07-01T07:12:46.431Z,67.05
2017-07-01T07:13:46.431Z,67.82
2017-07-01T07:14:46.432Z,67.91
2017-07-01T07:15:46.443Z,67.05
2017-07-01T07:16:46.429Z,69.37
2017-07-01T07:17:46.447Z,69.27
2017-07-01T07:18:46.436Z,68.88
2017-07-01T07:19:46.449Z,68.21
2017-07-01T07:20:46.446Z,69.43
2017-07-01T07:21:46.453Z,69.04
2017-07-01T07:22:46.443Z,70.01
2017-07-01T07:23:46.449Z,69.33
2017-07-01T07:24:46.459Z,69.24
2017-07-01T07:25:46.459Z,68.37
2017-07-01T07:26:46.471Z,68.37
2017-07-01T07:27:46.456Z,67.79
2017-07-01T07:28:46.454Z,68.17
2017-07-01T07:29:46.474Z,69.33
2017-07-01T07:30:46.461Z,69.24
2017-07-01T07:31:46.472Z,69.14
2017-07-01T07:32:46.465Z,70.01
2017-07-01T07:33:46.478Z,70.78
2017-07-01T07:34:46.466Z,69.14
2017-07-01T07:35:46.488Z,69.3
2017-07-01T07:36:46.481Z,69.01
2017-07-01T07:37:46.486Z,69.88
2017-07-01T07:38:46.483Z,69.88
2017-07-01T07:39:46.479Z,69.01
2017-07-01T07:40:46.481Z,69.1
2017-07-01T07:41:46.497Z,70.84
2017-07-01T07:42:46.484Z,69.59
2017-07-01T07:43:46.186Z,70.17
2017-07-01T07:44:46.500Z,69.84
2017-07-01T07:45:46.498Z,68.49
2017-07-01T07:46:46.497Z,68.68
2017-07-01T07:47:46.499Z,68.59
2017-07-01T07:48:46.501Z,68.68
2017-07-01T07:49:46.511Z,68.1
2017-07-01T07:50:46.190Z,67.91
2017-07-01T07:51:46.513Z,69.07
2017-07-01T07:52:46.506Z,69.07
2017-07-01T07:53:46.507Z,69.04
2017-07-01T07:54:46.510Z,69.81
2017-07-01T07:55:46.508Z,68.17
2017-07-01T07:56:46.522Z,68.46
2017-07-01T07:57:46.513Z,67.97
2017-07-01T07:58:46.510Z,68.07
2017-07-01T07:59:46.815Z,67.2
2017-07-01T08:00:46.515Z,66.85
2017-07-01T08:01:46.521Z,68.2
2017-07-01T08:02:46.517Z,68.1
2017-07-01T08:03:46.517Z,69.17
2017-07-01T08:04:46.523Z,68.01
2017-07-01T08:05:46.531Z,68.1
2017-07-01T08:06:46.512Z,68.1
2017-07-01T08:07:46.522Z,67.75
2017-07-01T08:08:46.527Z,67.36
2017-07-01T08:09:46.532Z,68.52
2017-07-01T08:10:46.519Z,68.04
2017-07-01T08:11:46.530Z,68.85
2017-07-01T08:12:46.523Z,68.56
2017-07-01T08:13:46.533Z,69.33
2017-07-01T08:14:46.535Z,68.08
2017-07-01T08:15:46.528Z,68.56
2017-07-01T08:16:46.536Z,68.27
2017-07-01T08:17:46.536Z,67.98
2017-07-01T08:18:46.235Z,68.46
2017-07-01T08:19:46.531Z,69.24
2017-07-01T08:20:46.531Z,68.08
2017-07-01T08:21:46.544Z,68.46
2017-07-01T08:22:46.545Z,67.88
2017-07-01T08:23:46.551Z,68.85
2017-07-01T08:24:46.554Z,70.4
2017-07-01T08:25:46.558Z,68.49
2017-07-01T08:26:46.543Z,68.66
2017-07-01T08:27:46.556Z,69.04
2017-07-01T08:28:46.549Z,68.95
2017-07-01T08:29:46.567Z,69.92
2017-07-01T08:30:46.561Z,69.43
2017-07-01T08:31:46.555Z,69.04
2017-07-01T08:32:46.251Z,69.14
2017-07-01T08:33:46.555Z,69.1
2017-07-01T08:34:46.575Z,67.94
2017-07-01T08:35:46.560Z,69.49
2017-07-01T08:36:46.577Z,68.24
2017-07-01T08:37:46.568Z,67.94
2017-07-01T08:38:46.576Z,68.24
2017-07-01T08:39:46.563Z,68.24
2017-07-01T08:40:46.584Z,68.04
2017-07-01T08:41:46.574Z,69.68
2017-07-01T08:42:46.593Z,70.46
2017-07-01T08:43:46.578Z,68.82
2017-07-01T08:44:46.587Z,68.08
2017-07-01T08:45:46.576Z,69.1
2017-07-01T08:46:46.589Z,68.43
2017-07-01T08:47:46.588Z,69.53
2017-07-01T08:48:46.583Z,68.85
2017-07-01T08:49:46.587Z,69.43
2017-07-01T08:50:46.599Z,67.69
2017-07-01T08:51:46.588Z,67.49
2017-07-01T08:52:46.599Z,68.4
2017-07-01T08:53:46.588Z,68.98
2017-07-01T08:54:46.288Z,68.98
2017-07-01T08:55:46.598Z,69.37
2017-07-01T08:56:46.297Z,69.08
2017-07-01T08:57:46.287Z,68.3
2017-07-01T08:58:46.610Z,69.46
2017-07-01T08:59:46.294Z,68.4
2017-07-01T09:00:46.608Z,68.11
2017-07-01T09:01:46.609Z,68.69
2017-07-01T09:02:46.604Z,70.24
2017-07-01T09:03:46.617Z,68.82
2017-07-01T09:04:46.622Z,68.98
2017-07-01T09:05:46.314Z,68.91
2017-07-01T09:06:46.610Z,68.21
2017-07-01T09:07:46.628Z,67.56
2017-07-01T09:08:46.313Z,71.04
2017-07-01T09:09:46.638Z,68.33
2017-07-01T09:10:46.630Z,69.11
2017-07-01T09:11:46.630Z,69.17
2017-07-01T09:12:46.641Z,68.91
2017-07-01T09:13:46.630Z,69.59
2017-07-01T09:14:46.645Z,68.91
2017-07-01T09:15:46.638Z,69.98
2017-07-01T09:16:46.642Z,68.63
2017-07-01T09:17:46.641Z,68.56
2017-07-01T09:18:46.639Z,68.76
2017-07-01T09:19:46.684Z,69.05
2017-07-01T09:20:46.656Z,68.47
2017-07-01T09:21:46.665Z,68.21
2017-07-01T09:22:46.656Z,68.89
2017-07-01T09:23:46.658Z,69.21
2017-07-01T09:24:46.665Z,67.95
2017-07-01T09:25:46.666Z,68.44
2017-07-01T09:26:46.670Z,67.6
2017-07-01T09:27:46.662Z,67.44
2017-07-01T09:28:46.681Z,68.6
2017-07-01T09:29:46.676Z,66.66
2017-07-01T09:30:46.695Z,66.89
2017-07-01T09:31:46.691Z,67.28
2017-07-01T09:32:46.703Z,67.96
2017-07-01T09:33:46.702Z,64.11
2017-07-01T09:34:46.698Z,64.98
2017-07-01T09:35:46.714Z,64.11
2017-07-01T09:36:46.722Z,65.47
2017-07-01T09:37:46.711Z,64.69
2017-07-01T09:38:46.732Z,65.01
2017-07-01T09:39:46.725Z,64.81
2017-07-01T09:40:46.746Z,65.11
2017-07-01T09:41:46.746Z,65.43
2017-07-01T09:42:46.758Z,60.57
2017-07-01T09:43:46.746Z,61.35
2017-07-01T09:44:46.800Z,60.67
2017-07-01T09:45:46.756Z,59.72
2017-07-01T09:46:46.776Z,61.77
2017-07-01T09:47:46.786Z,61.67
2017-07-01T09:48:46.795Z,62.54
2017-07-01T09:49:46.792Z,61.87
2017-07-01T09:50:46.800Z,62.09
2017-07-01T09:51:46.813Z,60.72
2017-07-01T09:52:46.822Z,57.15
2017-07-01T09:53:46.828Z,57.81
2017-07-01T09:54:46.825Z,56.84
2017-07-01T09:55:46.833Z,60.05
2017-07-01T09:56:46.837Z,56.84
2017-07-01T09:57:46.850Z,55.96
2017-07-01T09:58:46.541Z,57.51
2017-07-01T09:59:46.864Z,58
2017-07-01T10:00:46.869Z,55.86
2017-07-01T10:01:46.885Z,55.18
2017-07-01T10:02:46.876Z,57.81
2017-07-01T10:03:46.895Z,57.12
2017-07-01T10:04:46.904Z,57.35
2017-07-01T10:05:46.893Z,57.22
2017-07-01T10:06:46.912Z,57.9
2017-07-01T10:07:46.921Z,59.1
2017-07-01T10:08:46.926Z,58.61
2017-07-01T10:09:46.935Z,57.54
2017-07-01T10:10:46.932Z,57.67
2017-07-01T10:11:46.943Z,59.42
2017-07-01T10:12:46.949Z,60.59
2017-07-01T10:13:46.962Z,60.59
2017-07-01T10:14:46.953Z,59.06
2017-07-01T10:15:46.976Z,58.87
2017-07-01T10:16:46.968Z,57.24
2017-07-01T10:17:46.989Z,55.38
2017-07-01T10:18:46.985Z,55.58
2017-07-01T10:19:47.002Z,55.77
2017-07-01T10:20:47.004Z,58.31
2017-07-01T10:21:47.016Z,56.1
2017-07-01T10:22:47.029Z,55.38
2017-07-01T10:23:47.026Z,54.21
2017-07-01T10:24:47.027Z,53.44
2017-07-01T10:25:47.030Z,52.66
2017-07-01T10:26:47.053Z,54.77
2017-07-01T10:27:47.050Z,54.65
2017-07-01T10:28:47.055Z,53.38
2017-07-01T10:29:47.074Z,54.72
2017-07-01T10:30:47.074Z,57.22
2017-07-01T10:31:47.093Z,54.86
2017-07-01T10:32:47.090Z,55.74
2017-07-01T10:33:47.102Z,57.75
2017-07-01T10:34:47.099Z,58.79
2017-07-01T10:35:47.100Z,60.31
2017-07-01T10:36:47.112Z,60
2017-07-01T10:37:47.129Z,62.1
2017-07-01T10:38:47.126Z,62.59
2017-07-01T10:39:47.124Z,62.85
2017-07-01T10:40:47.130Z,63.4
2017-07-01T10:41:47.128Z,64.34
2017-07-01T10:42:47.148Z,64.82
2017-07-01T10:43:47.146Z,65.95
2017-07-01T10:44:47.152Z,66.4
2017-07-01T10:45:47.154Z,66.66
2017-07-01T10:46:47.160Z,66.47
2017-07-01T10:47:47.158Z,64.59
2017-07-01T10:48:47.165Z,63.5
2017-07-01T10:49:47.167Z,62.79
2017-07-01T10:50:47.168Z,61.99
2017-07-01T10:51:47.175Z,61.86
2017-07-01T10:52:47.179Z,61.77
2017-07-01T10:53:47.162Z,60.96
2017-07-01T10:54:47.183Z,61.03
2017-07-01T10:55:47.168Z,61.41
2017-07-01T10:56:46.872Z,61.1
2017-07-01T10:57:47.170Z,60.71
2017-07-01T10:58:47.188Z,61.07
2017-07-01T10:59:47.180Z,60.68
2017-07-01T11:00:47.189Z,60.75
2017-07-01T11:01:47.177Z,61.22
2017-07-01T11:02:47.187Z,60.94
2017-07-01T11:03:47.173Z,61.04
2017-07-01T11:04:47.190Z,61.61
2017-07-01T11:05:47.173Z,62.57
2017-07-01T11:06:47.181Z,61.13
2017-07-01T11:07:47.179Z,61.9
2017-07-01T11:08:47.174Z,61.52
2017-07-01T11:09:47.438Z,62.48
2017-07-01T11:10:47.181Z,62.48
2017-07-01T11:11:47.168Z,61.8
2017-07-01T11:12:47.170Z,61.61
2017-07-01T11:13:47.165Z,61.35
2017-07-01T11:14:47.174Z,61.45
2017-07-01T11:15:47.168Z,62.22
2017-07-01T11:16:47.175Z,61.83
2017-07-01T11:17:47.178Z,61.48
2017-07-01T11:18:46.869Z,61.87
2017-07-01T11:19:47.175Z,61.58
2017-07-01T11:20:47.173Z,61.29
2017-07-01T11:21:47.174Z,61.29
2017-07-01T11:22:47.161Z,62.35
2017-07-01T11:23:47.174Z,62.45
2017-07-01T11:24:47.166Z,61.87
2017-07-01T11:25:47.176Z,61.38
2017-07-01T11:26:47.181Z,62.15
2017-07-01T11:27:47.165Z,61.68
2017-07-01T11:28:47.172Z,61.61
2017-07-01T11:29:47.168Z,61.71
2017-07-01T11:30:47.178Z,61.61
2017-07-01T11:31:47.179Z,61.71
2017-07-01T11:32:47.176Z,61.71
2017-07-01T11:33:47.174Z,61.74
2017-07-01T11:34:47.186Z,61.64
2017-07-01T11:35:47.169Z,63.37
2017-07-01T11:36:47.178Z,63.6
2017-07-01T11:37:47.169Z,63.21
2017-07-01T11:38:47.177Z,62.73
2017-07-01T11:39:47.174Z,63.15
2017-07-01T11:40:47.188Z,62.28
2017-07-01T11:41:47.169Z,61.54
2017-07-01T11:42:47.182Z,62.02
2017-07-01T11:43:47.185Z,62.24
2017-07-01T11:44:47.192Z,61.76
2017-07-01T11:45:47.175Z,63.73
2017-07-01T11:46:47.189Z,64.01
2017-07-01T11:47:47.183Z,66.37
2017-07-01T11:48:47.194Z,65.5
2017-07-01T11:49:47.184Z,65.24
2017-07-01T11:50:47.203Z,66.3
2017-07-01T11:51:47.199Z,65.53
2017-07-01T11:52:46.898Z,65.27
2017-07-01T11:53:47.206Z,65.27
2017-07-01T11:54:47.207Z,65.56
2017-07-01T11:55:47.215Z,65.66
2017-07-01T11:56:47.219Z,67.14
2017-07-01T11:57:47.206Z,66.47
2017-07-01T11:58:47.220Z,65.79
2017-07-01T11:59:47.230Z,66.02
2017-07-01T12:00:47.234Z,66.5
2017-07-01T12:01:47.229Z,66.5
2017-07-01T12:02:47.222Z,66.82
2017-07-01T12:03:47.233Z,67.5
2017-07-01T12:04:47.244Z,68.02
2017-07-01T12:05:47.255Z,66.95
2017-07-01T12:06:47.241Z,67.34
2017-07-01T12:07:47.259Z,66.95
2017-07-01T12:08:47.254Z,67.44
2017-07-01T12:09:47.261Z,67.44
2017-07-01T12:10:46.955Z,68.31
2017-07-01T12:11:47.295Z,66.89
2017-07-01T12:12:47.281Z,67.18
2017-07-01T12:13:46.966Z,68.93
2017-07-01T12:14:47.271Z,67.31
2017-07-01T12:15:47.285Z,67.8
2017-07-01T12:16:46.981Z,65.69
2017-07-01T12:17:47.301Z,65.89
2017-07-01T12:18:47.294Z,66.37
2017-07-01T12:19:46.995Z,66.47
2017-07-01T12:20:47.301Z,65.2
2017-07-01T12:21:47.318Z,65.69
2017-07-01T12:22:47.310Z,65.14
2017-07-01T12:23:47.327Z,65.43
2017-07-01T12:24:47.326Z,66.5
2017-07-01T12:25:47.340Z,66.4
2017-07-01T12:26:47.345Z,65.46
2017-07-01T12:27:47.348Z,65.66
2017-07-01T12:28:47.339Z,65.17
2017-07-01T12:29:47.361Z,65.17
2017-07-01T12:30:47.371Z,65.59
2017-07-01T12:31:47.368Z,64.81
2017-07-01T12:32:47.374Z,63.84
2017-07-01T12:33:47.380Z,62.57
2017-07-01T12:34:47.385Z,57.42
2017-07-01T12:35:47.382Z,57.9
2017-07-01T12:36:47.388Z,59.33
2017-07-01T12:37:47.404Z,58.26
2017-07-01T12:38:47.414Z,60.31
2017-07-01T12:39:47.423Z,62.32
2017-07-01T12:40:47.420Z,63.32
2017-07-01T12:41:47.426Z,63.1
2017-07-01T12:42:47.419Z,62.35
2017-07-01T12:43:47.436Z,62.16
2017-07-01T12:44:47.441Z,61.57
2017-07-01T12:45:47.449Z,61.77
2017-07-01T12:46:47.457Z,58.85
2017-07-01T12:47:47.459Z,58.95
2017-07-01T12:48:47.455Z,58.43
2017-07-01T12:49:47.470Z,57.36
2017-07-01T12:50:47.474Z,59.11
2017-07-01T12:51:47.475Z,60.54
2017-07-01T12:52:47.485Z,60.35
2017-07-01T12:53:47.485Z,60.83
2017-07-01T12:54:47.502Z,61.38
2017-07-01T12:55:47.493Z,59.44
2017-07-01T12:56:47.507Z,61.07